createdAt,value
2022-12-28T00:00:23.672Z,1.20
2022-12-28T00:03:26.819Z,1.35
2022-12-28T00:06:29.268Z,1.13
2022-12-28T00:09:31.880Z,1.13
2022-12-28T00:12:34.105Z,1.10
2022-12-28T00:15:36.705Z,1.15
2022-12-28T00:18:39.600Z,1.20
2022-12-28T00:21:42.679Z,1.23
2022-12-28T00:24:45.153Z,1.33
2022-12-28T00:27:47.809Z,1.30
2022-12-28T00:30:49.989Z,1.20
2022-12-28T00:33:52.889Z,1.50
2022-12-28T00:37:11.094Z,1.13
2022-12-28T00:40:20.382Z,1.30
2022-12-28T00:43:25.952Z,1.33
2022-12-28T00:46:28.231Z,1.20
2022-12-28T00:49:31.546Z,1.20
2022-12-28T00:52:35.063Z,1.15
2022-12-28T00:55:37.563Z,1.30
2022-12-28T00:58:41.217Z,1.40
2022-12-28T01:01:44.159Z,1.27
2022-12-28T01:04:47.091Z,1.40
2022-12-28T01:07:50.466Z,1.20
2022-12-28T01:10:53.195Z,1.20
2022-12-28T01:13:56.117Z,1.38
2022-12-28T01:16:58.589Z,1.40
2022-12-28T01:20:01.094Z,1.27
2022-12-28T01:23:04.121Z,1.20
2022-12-28T01:26:07.181Z,1.35
2022-12-28T01:29:09.531Z,1.25
2022-12-28T01:32:12.573Z,1.20
2022-12-28T01:35:15.118Z,1.35
2022-12-28T01:38:17.526Z,1.30
2022-12-28T01:41:19.742Z,1.40
2022-12-28T01:44:22.774Z,1.15
2022-12-28T01:47:26.430Z,1.10
2022-12-28T01:50:28.618Z,1.13
2022-12-28T01:53:30.913Z,1.13
2022-12-28T01:56:33.616Z,1.30
2022-12-28T01:59:35.800Z,1.20
2022-12-28T02:02:38.227Z,0.95
2022-12-28T02:05:40.979Z,1.27
2022-12-28T02:08:43.539Z,1.20
2022-12-28T02:11:45.952Z,1.10
2022-12-28T02:14:48.677Z,1.10
2022-12-28T02:17:51.650Z,1.08
2022-12-28T02:20:53.896Z,1.33
2022-12-28T02:23:56.402Z,1.10
2022-12-28T02:26:59.315Z,1.20
2022-12-28T02:30:02.706Z,1.10
2022-12-28T02:33:05.348Z,1.20
2022-12-28T02:36:12.982Z,1.17
2022-12-28T02:39:19.603Z,1.20
2022-12-28T02:42:24.020Z,1.05
2022-12-28T02:45:26.516Z,1.20
2022-12-28T02:48:29.526Z,1.17
2022-12-28T02:51:32.978Z,1.10
2022-12-28T02:54:35.924Z,1.30
2022-12-28T02:57:38.492Z,1.10
2022-12-28T03:00:41.151Z,1.40
2022-12-28T03:03:43.414Z,1.20
2022-12-28T03:06:45.638Z,1.40
2022-12-28T03:09:47.858Z,1.00
2022-12-28T03:12:50.327Z,1.27
2022-12-28T03:15:56.291Z,1.20
2022-12-28T03:18:58.732Z,1.20
2022-12-28T03:22:02.175Z,1.10
2022-12-28T03:25:05.618Z,1.20
2022-12-28T03:28:08.159Z,1.10
2022-12-28T03:31:14.174Z,1.20
2022-12-28T03:34:22.688Z,1.38
2022-12-28T03:37:25.575Z,1.10
2022-12-28T03:40:29.804Z,1.20
2022-12-28T03:43:33.533Z,1.10
2022-12-28T03:46:37.923Z,1.20
2022-12-28T03:49:40.865Z,1.30
2022-12-28T03:52:45.371Z,1.25
2022-12-28T03:55:49.172Z,1.08
2022-12-28T03:58:54.367Z,1.30
2022-12-28T04:01:59.763Z,1.30
2022-12-28T04:05:04.380Z,1.00
2022-12-28T04:08:06.634Z,1.08
2022-12-28T04:11:09.478Z,0.90
2022-12-28T04:14:11.937Z,1.00
2022-12-28T04:17:18.242Z,0.85
2022-12-28T04:20:20.740Z,0.95
2022-12-28T04:23:25.702Z,0.80
2022-12-28T04:26:40.490Z,1.17
2022-12-28T04:29:45.141Z,1.00
2022-12-28T04:32:53.516Z,1.02
2022-12-28T04:35:55.928Z,1.08
2022-12-28T04:38:59.239Z,1.00
2022-12-28T04:42:02.602Z,1.00
2022-12-28T04:45:05.660Z,1.00
2022-12-28T04:48:08.837Z,1.17
2022-12-28T04:51:11.398Z,0.98
2022-12-28T04:54:13.603Z,1.40
2022-12-28T04:57:16.569Z,1.10
2022-12-28T05:00:19.002Z,0.90
2022-12-28T05:03:21.966Z,1.10
2022-12-28T05:06:24.858Z,1.00
2022-12-28T05:09:27.811Z,1.00
2022-12-28T05:12:30.567Z,1.10
2022-12-28T05:15:33.816Z,1.20
2022-12-28T05:18:36.330Z,1.00
2022-12-28T05:21:39.296Z,1.00
2022-12-28T05:24:42.612Z,1.17
2022-12-28T05:27:45.081Z,1.10
2022-12-28T05:30:47.714Z,1.10
2022-12-28T05:33:49.829Z,1.25
2022-12-28T05:36:52.957Z,1.25
2022-12-28T05:39:56.691Z,1.20
2022-12-28T05:42:59.372Z,1.05
2022-12-28T05:46:02.252Z,1.20
2022-12-28T05:49:05.019Z,1.20
2022-12-28T05:52:08.749Z,1.30
2022-12-28T05:55:11.569Z,1.20
2022-12-28T05:58:13.864Z,1.10
2022-12-28T06:01:16.383Z,1.33
2022-12-28T06:04:19.030Z,1.17
2022-12-28T06:07:23.194Z,1.25
2022-12-28T06:10:26.483Z,1.27
2022-12-28T06:13:28.619Z,1.25
2022-12-28T06:16:30.829Z,1.30
2022-12-28T06:19:33.726Z,1.20
2022-12-28T06:22:36.143Z,1.00
2022-12-28T06:25:38.588Z,1.10
2022-12-28T06:28:41.247Z,1.00
2022-12-28T06:31:43.988Z,0.90
2022-12-28T06:34:46.515Z,1.00
2022-12-28T06:37:49.141Z,0.88
2022-12-28T06:41:12.862Z,1.00
2022-12-28T06:44:14.857Z,1.00
2022-12-28T06:47:17.733Z,0.98
2022-12-28T06:50:20.775Z,1.05
2022-12-28T06:53:23.020Z,1.10
2022-12-28T06:56:25.271Z,0.93
2022-12-28T06:59:27.548Z,1.00
2022-12-28T07:02:29.760Z,1.00
2022-12-28T07:05:32.080Z,0.80
2022-12-28T07:08:34.730Z,1.00
2022-12-28T07:11:37.765Z,0.90
2022-12-28T07:14:40.288Z,1.00
2022-12-28T07:17:42.971Z,1.17
2022-12-28T07:20:45.603Z,1.02
2022-12-28T07:23:48.935Z,1.25
2022-12-28T07:26:51.607Z,1.15
2022-12-28T07:29:54.211Z,0.98
2022-12-28T07:32:56.902Z,0.90
2022-12-28T07:35:59.491Z,1.10
2022-12-28T07:39:02.350Z,1.10
2022-12-28T07:42:05.206Z,1.10
2022-12-28T07:45:07.617Z,0.90
2022-12-28T07:48:10.144Z,1.33
2022-12-28T07:51:13.021Z,1.15
2022-12-28T07:54:15.979Z,1.10
2022-12-28T07:57:18.608Z,1.10
2022-12-28T08:00:21.920Z,1.10
2022-12-28T08:03:24.638Z,1.20
2022-12-28T08:06:27.977Z,0.95
2022-12-28T08:09:31.374Z,1.17
2022-12-28T08:12:34.021Z,1.10
2022-12-28T08:15:36.280Z,1.10
2022-12-28T08:18:39.291Z,0.90
2022-12-28T08:21:42.685Z,1.08
2022-12-28T08:24:45.389Z,1.10
2022-12-28T08:27:47.662Z,1.00
2022-12-28T08:30:50.295Z,0.90
2022-12-28T08:33:52.938Z,1.25
2022-12-28T08:36:55.140Z,0.93
2022-12-28T08:39:57.699Z,0.90
2022-12-28T08:43:00.183Z,1.10
2022-12-28T08:46:02.641Z,1.20
2022-12-28T08:49:05.772Z,1.10
2022-12-28T08:52:08.298Z,1.10
2022-12-28T08:55:11.329Z,1.00
2022-12-28T08:58:14.035Z,1.20
2022-12-28T09:01:17.015Z,1.00
2022-12-28T09:04:20.089Z,1.10
2022-12-28T09:07:23.774Z,0.90
2022-12-28T09:10:26.657Z,1.05
2022-12-28T09:13:29.244Z,0.80
2022-12-28T09:16:32.060Z,0.90
2022-12-28T09:19:34.242Z,0.77
2022-12-28T09:22:37.345Z,0.90
2022-12-28T09:25:40.363Z,0.82
2022-12-28T09:28:43.091Z,1.08
2022-12-28T09:31:45.328Z,0.90
2022-12-28T09:34:47.921Z,0.70
2022-12-28T09:37:51.200Z,0.73
2022-12-28T09:40:53.612Z,0.93
2022-12-28T09:43:56.566Z,0.90
2022-12-28T09:46:58.917Z,0.98
2022-12-28T09:50:01.427Z,0.93
2022-12-28T09:53:04.069Z,1.00
2022-12-28T09:56:06.984Z,1.00
2022-12-28T09:59:10.443Z,0.75
2022-12-28T10:02:13.247Z,1.00
2022-12-28T10:05:15.936Z,0.82
2022-12-28T10:08:18.660Z,0.93
2022-12-28T10:11:21.023Z,0.90
2022-12-28T10:14:24.352Z,0.80
2022-12-28T10:17:26.915Z,0.90
2022-12-28T10:20:30.087Z,1.10
2022-12-28T10:23:32.975Z,1.08
2022-12-28T10:26:35.494Z,0.90
2022-12-28T10:29:38.767Z,1.00
2022-12-28T10:32:42.154Z,1.02
2022-12-28T10:35:44.771Z,0.93
2022-12-28T10:38:47.425Z,0.73
2022-12-28T10:41:49.973Z,0.80
2022-12-28T10:44:52.130Z,0.88
2022-12-28T10:47:54.394Z,1.00
2022-12-28T10:50:56.603Z,0.75
2022-12-28T10:53:58.821Z,0.93
2022-12-28T10:57:01.793Z,0.90
2022-12-28T11:00:04.296Z,0.88
2022-12-28T11:03:07.225Z,1.00
2022-12-28T11:06:10.190Z,0.77
2022-12-28T11:09:13.308Z,0.88
2022-12-28T11:12:16.761Z,0.82
2022-12-28T11:15:19.402Z,0.80
2022-12-28T11:18:22.425Z,1.00
2022-12-28T11:21:25.049Z,0.90
2022-12-28T11:24:27.532Z,0.85
2022-12-28T11:27:30.350Z,0.93
2022-12-28T11:30:33.288Z,0.70
2022-12-28T11:33:36.125Z,0.90
2022-12-28T11:36:38.556Z,0.80
2022-12-28T11:39:41.474Z,0.70
2022-12-28T11:42:44.800Z,0.93
2022-12-28T11:45:47.236Z,0.80
2022-12-28T11:48:50.195Z,1.00
2022-12-28T11:51:53.064Z,0.85
2022-12-28T11:54:55.774Z,0.70
2022-12-28T11:57:58.493Z,0.88
2022-12-28T12:01:01.079Z,0.80
2022-12-28T12:04:03.998Z,0.75
2022-12-28T12:07:06.238Z,0.77
2022-12-28T12:10:08.882Z,0.70
2022-12-28T12:13:11.552Z,0.88
2022-12-28T12:16:14.304Z,0.90
2022-12-28T12:19:16.560Z,0.82
2022-12-28T12:22:19.059Z,0.90
2022-12-28T12:25:21.498Z,0.90
2022-12-28T12:28:23.512Z,0.75
2022-12-28T12:31:27.633Z,0.98
2022-12-28T12:34:31.115Z,0.80
2022-12-28T12:37:34.456Z,0.70
2022-12-28T12:40:36.936Z,0.77
2022-12-28T12:43:39.687Z,0.80
2022-12-28T12:46:42.047Z,0.68
2022-12-28T12:49:44.612Z,0.60
2022-12-28T12:52:47.399Z,0.60
2022-12-28T12:55:50.567Z,0.60
2022-12-28T12:58:53.669Z,0.60
2022-12-28T13:01:56.697Z,0.68
2022-12-28T13:04:59.956Z,0.50
2022-12-28T13:08:03.153Z,0.50
2022-12-28T13:11:06.272Z,0.60
2022-12-28T13:14:08.671Z,0.70
2022-12-28T13:17:10.930Z,0.50
2022-12-28T13:20:13.412Z,0.63
2022-12-28T13:23:16.415Z,0.80
2022-12-28T13:26:18.904Z,0.65
2022-12-28T13:29:21.404Z,0.60
2022-12-28T13:32:24.563Z,0.77
2022-12-28T13:35:27.142Z,0.70
2022-12-28T13:38:29.793Z,0.57
2022-12-28T13:41:32.674Z,0.77
2022-12-28T13:44:35.146Z,0.70
2022-12-28T13:47:37.642Z,0.70
2022-12-28T13:50:40.916Z,0.70
2022-12-28T13:53:43.757Z,0.70
2022-12-28T13:56:45.867Z,0.80
2022-12-28T13:59:48.460Z,0.70
2022-12-28T14:02:50.655Z,0.73
2022-12-28T14:05:53.438Z,0.70
2022-12-28T14:08:56.474Z,0.70
2022-12-28T14:12:00.698Z,0.88
2022-12-28T14:15:02.854Z,0.88
2022-12-28T14:18:05.081Z,0.80
2022-12-28T14:21:07.277Z,0.80
2022-12-28T14:24:10.409Z,0.73
2022-12-28T14:27:13.918Z,0.60
2022-12-28T14:30:16.540Z,0.80
2022-12-28T14:33:24.695Z,0.90
2022-12-28T14:36:27.390Z,0.90
2022-12-28T14:39:30.086Z,1.02
2022-12-28T14:42:32.319Z,0.95
2022-12-28T14:45:35.907Z,0.75
2022-12-28T14:48:58.696Z,0.88
2022-12-28T14:52:02.182Z,0.80
2022-12-28T14:55:05.465Z,0.85
2022-12-28T14:58:08.124Z,1.05
2022-12-28T15:01:10.816Z,0.90
2022-12-28T15:04:13.121Z,0.88
2022-12-28T15:07:16.430Z,1.00
2022-12-28T15:10:19.525Z,1.00
2022-12-28T15:13:22.496Z,0.80
2022-12-28T15:16:25.654Z,0.98
2022-12-28T15:19:29.067Z,0.80
2022-12-28T15:22:31.700Z,0.85
2022-12-28T15:25:34.549Z,0.90
2022-12-28T15:28:37.162Z,0.77
2022-12-28T15:31:40.469Z,0.80
2022-12-28T15:34:43.123Z,0.80
2022-12-28T15:37:45.822Z,0.95
2022-12-28T15:40:48.514Z,0.90
2022-12-28T15:43:51.531Z,0.90
2022-12-28T15:46:54.447Z,1.00
2022-12-28T15:49:57.787Z,0.80
2022-12-28T15:53:00.966Z,0.85
2022-12-28T15:56:03.820Z,0.90
2022-12-28T15:59:06.493Z,0.80
2022-12-28T16:02:09.312Z,1.00
2022-12-28T16:05:12.361Z,1.23
2022-12-28T16:08:15.185Z,1.00
2022-12-28T16:11:17.985Z,0.85
2022-12-28T16:14:21.163Z,0.93
2022-12-28T16:17:24.065Z,0.80
2022-12-28T16:20:26.624Z,1.10
2022-12-28T16:23:29.152Z,0.90
2022-12-28T16:26:31.472Z,1.10
2022-12-28T16:29:34.240Z,1.00
2022-12-28T16:32:37.381Z,0.93
2022-12-28T16:35:39.856Z,0.77
2022-12-28T16:38:42.649Z,0.90
2022-12-28T16:41:45.593Z,0.93
2022-12-28T16:44:47.802Z,0.90
2022-12-28T16:47:50.549Z,0.90
2022-12-28T16:50:53.474Z,0.82
2022-12-28T16:53:56.324Z,0.80
2022-12-28T16:56:58.961Z,0.77
2022-12-28T17:00:01.546Z,0.98
2022-12-28T17:03:04.145Z,0.90
2022-12-28T17:06:06.983Z,0.90
2022-12-28T17:09:10.254Z,1.00
2022-12-28T17:12:13.370Z,0.90
2022-12-28T17:15:16.492Z,1.13
2022-12-28T17:18:18.949Z,0.85
2022-12-28T17:21:22.000Z,0.80
2022-12-28T17:24:24.201Z,1.00
2022-12-28T17:27:26.448Z,0.98
2022-12-28T17:30:29.164Z,0.90
2022-12-28T17:33:38.700Z,0.90
2022-12-28T17:36:43.603Z,0.93
2022-12-28T17:39:46.208Z,1.10
2022-12-28T17:42:49.442Z,0.73
2022-12-28T17:45:51.697Z,0.90
2022-12-28T17:48:54.788Z,0.98
2022-12-28T17:51:57.679Z,0.80
2022-12-28T17:55:00.263Z,1.25
2022-12-28T17:58:02.460Z,0.93
2022-12-28T18:01:05.464Z,0.80
2022-12-28T18:04:07.683Z,1.00
2022-12-28T18:07:10.412Z,0.75
2022-12-28T18:10:13.061Z,1.08
2022-12-28T18:13:15.736Z,1.10
2022-12-28T18:16:18.475Z,0.93
2022-12-28T18:19:21.196Z,1.00
2022-12-28T18:22:23.822Z,1.17
2022-12-28T18:25:26.047Z,1.05
2022-12-28T18:28:29.348Z,0.88
2022-12-28T18:31:32.362Z,1.10
2022-12-28T18:34:35.417Z,1.00
2022-12-28T18:37:38.541Z,0.93
2022-12-28T18:40:41.055Z,1.10
2022-12-28T18:43:43.694Z,0.80
2022-12-28T18:46:45.681Z,1.20
2022-12-28T18:49:48.473Z,1.13
2022-12-28T18:52:50.628Z,1.30
2022-12-28T18:55:53.431Z,1.00
2022-12-28T18:58:56.827Z,1.10
2022-12-28T19:02:09.141Z,0.98
2022-12-28T19:05:13.566Z,0.98
2022-12-28T19:08:16.894Z,1.00
2022-12-28T19:11:19.852Z,0.90
2022-12-28T19:14:22.819Z,0.98
2022-12-28T19:17:25.650Z,1.00
2022-12-28T19:20:28.407Z,0.90
2022-12-28T19:23:31.381Z,1.00
2022-12-28T19:26:33.511Z,1.10
2022-12-28T19:29:36.393Z,1.00
2022-12-28T19:32:39.195Z,1.00
2022-12-28T19:35:41.697Z,1.10
2022-12-28T19:38:44.362Z,0.85
2022-12-28T19:41:46.958Z,1.10
2022-12-28T19:44:49.436Z,1.10
2022-12-28T19:47:52.468Z,0.95
2022-12-28T19:50:56.169Z,0.80
2022-12-28T19:53:59.119Z,1.05
2022-12-28T19:57:01.355Z,0.95
2022-12-28T20:00:04.417Z,1.00
2022-12-28T20:03:07.324Z,1.00
2022-12-28T20:06:10.270Z,0.98
2022-12-28T20:09:13.218Z,1.10
2022-12-28T20:12:16.184Z,1.00
2022-12-28T20:15:19.474Z,1.00
2022-12-28T20:18:22.043Z,1.00
2022-12-28T20:21:25.045Z,1.20
2022-12-28T20:24:27.745Z,0.90
2022-12-28T20:27:30.179Z,0.95
2022-12-28T20:30:33.415Z,0.85
2022-12-28T20:33:36.143Z,0.90
2022-12-28T20:36:39.067Z,0.80
2022-12-28T20:39:41.976Z,0.90
2022-12-28T20:42:45.269Z,0.88
2022-12-28T20:45:54.073Z,0.73
2022-12-28T20:48:56.605Z,0.80
2022-12-28T20:51:59.441Z,0.70
2022-12-28T20:55:02.266Z,0.70
2022-12-28T20:58:05.573Z,0.80
2022-12-28T21:01:08.131Z,0.80
2022-12-28T21:04:10.785Z,0.70
2022-12-28T21:07:13.514Z,0.80
2022-12-28T21:10:16.490Z,0.77
2022-12-28T21:13:19.846Z,0.88
2022-12-28T21:16:22.831Z,0.60
2022-12-28T21:19:25.823Z,0.90
2022-12-28T21:22:28.682Z,0.90
2022-12-28T21:25:31.214Z,0.90
2022-12-28T21:28:34.145Z,0.90
2022-12-28T21:31:37.581Z,0.90
2022-12-28T21:34:40.563Z,0.82
2022-12-28T21:37:43.410Z,0.82
2022-12-28T21:40:46.066Z,0.90
2022-12-28T21:43:48.711Z,0.82
2022-12-28T21:46:51.228Z,0.90
2022-12-28T21:49:54.119Z,0.80
2022-12-28T21:52:56.376Z,0.82
2022-12-28T21:55:59.407Z,0.80
2022-12-28T21:59:02.218Z,0.80
2022-12-28T22:02:05.171Z,0.70
2022-12-28T22:05:08.547Z,0.80
2022-12-28T22:08:11.637Z,0.90
2022-12-28T22:11:14.895Z,0.93
2022-12-28T22:14:17.665Z,1.02
2022-12-28T22:17:20.989Z,0.85
2022-12-28T22:20:24.689Z,0.90
2022-12-28T22:23:32.765Z,1.00
2022-12-28T22:26:36.697Z,0.90
2022-12-28T22:29:38.969Z,0.95
2022-12-28T22:32:41.644Z,0.90
2022-12-28T22:35:44.323Z,0.93
2022-12-28T22:38:47.345Z,0.80
2022-12-28T22:41:50.727Z,0.90
2022-12-28T22:44:53.766Z,0.90
2022-12-28T22:47:56.692Z,0.80
2022-12-28T22:50:58.907Z,0.95
2022-12-28T22:54:01.604Z,1.00
2022-12-28T22:57:04.126Z,0.80
2022-12-28T23:00:06.865Z,0.80
2022-12-28T23:03:10.203Z,0.90
2022-12-28T23:06:13.915Z,1.00
2022-12-28T23:09:17.164Z,0.93
2022-12-28T23:12:20.197Z,1.00
2022-12-28T23:15:22.667Z,0.90
2022-12-28T23:18:25.727Z,1.08
2022-12-28T23:21:28.573Z,1.00
2022-12-28T23:24:31.028Z,0.90
2022-12-28T23:27:33.700Z,0.90
2022-12-28T23:30:36.216Z,0.93
2022-12-28T23:33:38.847Z,0.80
2022-12-28T23:36:41.115Z,0.80
2022-12-28T23:39:43.862Z,1.00
2022-12-28T23:42:46.427Z,1.10
2022-12-28T23:45:48.938Z,0.90
2022-12-28T23:48:51.419Z,0.90
2022-12-28T23:51:54.501Z,0.98
2022-12-28T23:54:57.930Z,0.70
2022-12-28T23:58:00.592Z,1.08
